Austin, CO

2:03 AM MDT on October 22, 2014 (GMT -0600)
KCOAUSTI3 | Change Station
CLOSE
Current Station
Personal Weather Station
Location: Austin, CO
Elevation: 5837 ft
Nearby Weather Stations

Elev 5837 ft 38.82 °N, 107.95 °W | Updated 2 minutes ago

Overcast
Overcast
49.1 °F
Feels Like 49 °F
N
2.2
Wind Variable Wind from NNE

Today
High -- | Low -- °F
--% Chance of Precip.
Yesterday
High -- | Low -- °F
Precip. -- in
7:28 AM 6:23 PM
Waning Crescent, 3% visible
Pressure 30.07 in
Visibility 10.0 miles
Clouds Scattered Clouds 4800 ft
Mostly Cloudy 6000 ft
Overcast 7000 ft
Windchill 49 °F
Dew Point 46 °F
Humidity 88%
Rainfall 0.04 in
Snow Depth Not available.
UV 0 out of 12
Pollen 1.90 out of 12
Air Quality Not available.
Flu Activity Sporadic
METAR KAJZ 220755Z AUTO 06008KT 10SM -VCTSRA SCT048 BKN060 OVC070 12/09 A3007 RMK AO2 LTG DSNT NE S AND SW T01210087

More Conditions Fewer Conditions

Pressure 30.07 in
Visibility 10.0 miles
Clouds Scattered Clouds 4800 ft
Mostly Cloudy 6000 ft
Overcast 7000 ft
Windchill 49 °F
Dew Point 46 °F
Humidity 88%
Rainfall 0.04 in
Snow Depth Not available.
UV 0 out of 12
Pollen 1.90 out of 12
Air Quality Not available.
Flu Activity Sporadic
METAR KAJZ 220755Z AUTO 06008KT 10SM -VCTSRA SCT048 BKN060 OVC070 12/09 A3007 RMK AO2 LTG DSNT NE S AND SW T01210087

More Conditions Fewer Conditions

10-Day Weather Forecast

Almanac

Astronomy

Oct. 22, 2014 Rise Set
Actual Time 7:28 AM MDT 6:23 PM MDT
Civil Twilight 7:01 AM MDT 6:50 PM MDT
Nautical Twilight 6:30 AM MDT 7:21 PM MDT
Astronomical Twilight 5:59 AM MDT 7:52 PM MDT
Moon 6:13 AM MDT 5:51 PM MDT
Length of Visible Light 11h 49m
Length of Day
10h 55m
Tomorrow will be 2m 21s shorter.
Waning Crescent, 3% of the Moon is Illuminated
Today
Waning Crescent
Oct 23
New
Oct 30
First Quarter
Nov 6
Full
Nov 14
Last Quarter

Today's Extremes

State Highs State Lows

Community

WunderPhotos

Upload Photos

1,763,889 photos uploaded!

Nearby

Snow Depth

Station Depth Elevation
Park Reservoir 0 in 9960 ft
Mesa Lakes 0 in 10000 ft
Overland Reservoir 0 in 9880 ft
Columbine Pass 1 in 9400 ft
McClure Pass 0 in 9500 ft

Earthquake Activity

City Distance Mag. Time & Date
No recent earthquake activity has been reported nearby.
Minimum magnitude displayed is 2.5.

Coastal Water Temperatures

Place Temperature
No Stations Reporting

Nearby Weather Stations